Time;durP1;ratioP1;P1;durP2;ratioP2;P2;SDS_P1;SDS_P2;PMS_P1;PMS_P2;Temp;Humidity;BMP_temperature;BMP_pressure;BME280_temperature;BME280_humidity;BME280_pressure;Samples;Min_cycle;Max_cycle;Signal;HPM_P1;HPM_P2
2022/01/19 00:00:58;;;;;;;12.25;5.05;;;1.50;76.50;;;-0.58;82.99;97538.41;4923455;29;20063;-64
2022/01/19 00:03:24;;;;;;;12.90;5.65;;;1.50;76.30;;;-0.59;82.97;97532.41;4922282;29;20098;-65
2022/01/19 00:05:50;;;;;;;12.15;4.85;;;1.50;76.40;;;-0.59;82.71;97526.41;4933875;28;20177;-65
2022/01/19 00:08:19;;;;;;;10.32;4.82;;;1.50;76.50;;;-0.60;82.73;97506.66;4941720;28;20046;-66
2022/01/19 00:10:45;;;;;;;11.32;4.78;;;1.40;76.60;;;-0.62;82.60;97505.00;4938353;29;20188;-65
2022/01/19 00:13:11;;;;;;;10.93;5.10;;;1.40;76.60;;;-0.65;82.81;97496.56;4925023;29;20463;-66
2022/01/19 00:15:36;;;;;;;13.93;5.25;;;1.40;76.70;;;-0.67;83.44;97507.00;4907409;29;20071;-66
2022/01/19 00:18:02;;;;;;;12.27;4.93;;;1.40;76.70;;;-0.70;83.18;97509.72;4921281;28;20038;-66
2022/01/19 00:20:30;;;;;;;14.43;4.90;;;1.40;76.90;;;-0.71;83.36;97512.41;4970054;28;20137;-64
2022/01/19 00:22:56;;;;;;;10.25;5.07;;;1.40;76.80;;;-0.72;83.46;97505.56;4952175;28;20034;-65
2022/01/19 00:25:22;;;;;;;13.60;4.88;;;1.30;77.00;;;-0.73;83.70;97499.56;4974585;28;20054;-65
2022/01/19 00:27:48;;;;;;;11.63;4.72;;;1.40;76.90;;;-0.76;83.26;97494.56;4952072;28;20249;-68
2022/01/19 00:30:13;;;;;;;10.02;4.63;;;1.30;76.90;;;-0.78;83.45;97495.56;4945058;28;20039;-65
2022/01/19 00:32:39;;;;;;;12.57;4.40;;;1.20;77.20;;;-0.80;83.54;97487.09;4967426;28;20035;-67
2022/01/19 00:35:06;;;;;;;13.75;4.38;;;1.30;77.30;;;-0.81;84.23;97486.25;4949524;28;20316;-65
2022/01/19 00:37:32;;;;;;;15.30;4.28;;;1.20;77.20;;;-0.83;83.86;97480.34;4956113;28;20126;-65
2022/01/19 00:39:58;;;;;;;14.00;4.50;;;1.20;77.10;;;-0.84;83.82;97472.69;4967787;28;20114;-65
2022/01/19 00:42:23;;;;;;;12.40;4.35;;;1.20;77.20;;;-0.85;84.28;97471.00;4954874;28;20598;-65
2022/01/19 00:44:49;;;;;;;12.60;3.70;;;1.10;77.10;;;-0.86;83.82;97477.94;4953461;28;20460;-68
2022/01/19 00:47:15;;;;;;;10.05;4.20;;;1.10;77.10;;;-0.85;83.45;97474.44;4968808;23;20049;-61
2022/01/19 00:49:42;;;;;;;10.75;3.97;;;1.20;77.00;;;-0.85;83.55;97463.25;4924436;29;20511;-61
2022/01/19 00:52:09;;;;;;;13.57;4.25;;;1.10;77.00;;;-0.86;83.73;97467.59;4929020;28;20582;-61
2022/01/19 00:54:35;;;;;;;10.02;4.30;;;1.10;76.80;;;-0.85;83.67;97468.44;4933112;28;20043;-62
2022/01/19 00:57:01;;;;;;;11.15;4.68;;;1.10;76.90;;;-0.85;83.96;97453.75;4919054;29;20043;-61
2022/01/19 00:59:27;;;;;;;14.50;4.45;;;1.20;76.90;;;-0.86;83.72;97440.94;4935322;28;20038;-62
2022/01/19 01:01:53;;;;;;;11.48;4.70;;;1.20;76.90;;;-0.88;83.76;97443.59;4957788;28;20063;-61
2022/01/19 01:04:18;;;;;;;13.50;5.13;;;1.10;77.00;;;-0.87;83.88;97445.28;4940756;28;20061;-61
2022/01/19 01:06:44;;;;;;;12.55;5.47;;;1.10;77.00;;;-0.88;83.86;97435.03;4949223;28;20067;-61
2022/01/19 01:09:10;;;;;;;9.95;5.53;;;1.10;77.10;;;-0.90;83.97;97429.13;4956667;28;20036;-61
2022/01/19 01:11:46;;;;;;;11.00;5.07;;;1.10;77.20;;;-0.91;83.70;97425.66;4937300;29;20111;-61
2022/01/19 01:16:58;;;;;;;14.27;6.13;;;1.10;77.40;;;-0.94;84.04;97428.44;4942373;28;20051;-61
2022/01/19 01:19:23;;;;;;;10.55;5.57;;;1.10;77.50;;;-0.97;84.16;97420.84;4924683;28;20086;-61
2022/01/19 01:21:49;;;;;;;13.98;5.45;;;1.10;77.50;;;-0.97;83.97;97413.09;4931958;29;20122;-61
2022/01/19 01:24:15;;;;;;;11.35;5.75;;;1.10;77.40;;;-0.98;84.33;97401.94;4945299;28;20122;-61
2022/01/19 01:26:40;;;;;;;17.25;5.50;;;1.00;77.60;;;-0.97;83.88;97393.28;4939139;29;20042;-61
2022/01/19 01:29:07;;;;;;;13.27;6.32;;;1.10;77.50;;;-0.98;83.99;97385.63;4916346;28;20114;-62
2022/01/19 01:31:33;;;;;;;18.38;6.97;;;1.10;77.40;;;-0.99;84.14;97373.63;4933159;29;20031;-61
2022/01/19 01:33:58;;;;;;;14.20;6.63;;;1.00;77.30;;;-1.00;84.40;97371.97;4945129;28;20118;-62
2022/01/19 01:36:30;;;;;;;12.77;6.32;;;1.10;77.40;;;-1.02;84.49;97378.97;4937448;28;20074;-63
2022/01/19 01:38:56;;;;;;;17.40;7.80;;;1.00;77.30;;;-1.04;84.11;97385.97;4925563;28;20534;-64
2022/01/19 01:41:22;;;;;;;19.30;7.65;;;1.00;77.30;;;-1.05;84.04;97392.06;4935104;28;20070;-64
2022/01/19 01:43:47;;;;;;;15.13;7.03;;;1.00;77.40;;;-1.06;83.98;97393.81;4959755;28;20039;-64
2022/01/19 01:46:30;;;;;;;15.65;7.03;;;1.00;77.20;;;-1.08;84.29;97389.66;4950008;28;20035;-64
2022/01/19 01:48:56;;;;;;;15.48;7.25;;;1.00;77.30;;;-1.08;84.42;97380.16;4933677;28;20032;-64
2022/01/19 01:54:06;;;;;;;12.00;6.43;;;0.90;77.30;;;-1.11;84.37;97374.31;4935934;28;20058;-64
2022/01/19 01:56:32;;;;;;;16.65;6.60;;;0.90;77.50;;;-1.12;84.14;97362.34;4951464;28;20127;-65
2022/01/19 01:58:57;;;;;;;15.48;6.55;;;0.90;77.60;;;-1.13;84.45;97353.75;4935943;28;20126;-63
2022/01/19 02:01:23;;;;;;;14.32;5.97;;;0.90;77.50;;;-1.15;84.16;97340.06;4953626;28;20069;-64
2022/01/19 02:03:49;;;;;;;17.15;6.18;;;0.90;77.60;;;-1.17;84.53;97326.44;4947227;28;20035;-64
2022/01/19 02:09:02;;;;;;;15.65;5.78;;;0.80;77.80;;;-1.22;85.31;97305.22;4931924;29;20118;-64
2022/01/19 02:23:17;;;;;;;18.30;6.20;;;0.70;78.40;;;-1.28;85.04;97274.59;4933144;28;20091;-64
2022/01/19 02:25:45;;;;;;;15.13;5.85;;;0.70;78.40;;;-1.28;84.91;97270.25;4935062;28;20116;-65
2022/01/19 02:41:40;;;;;;;9.80;4.95;;;0.70;78.40;;;-1.37;85.39;97229.47;4945674;28;20067;-64
2022/01/19 02:44:08;;;;;;;14.85;5.70;;;0.60;78.50;;;-1.36;85.44;97226.00;4953764;28;20035;-64
2022/01/19 02:49:19;;;;;;;14.10;5.63;;;0.70;78.60;;;-1.38;85.49;97227.81;4948013;29;20039;-64
2022/01/19 02:51:48;;;;;;;10.43;4.75;;;0.70;78.50;;;-1.39;85.49;97220.97;4952444;28;20518;-65
2022/01/19 02:54:15;;;;;;;12.32;5.95;;;0.60;78.60;;;-1.38;85.49;97230.38;4930746;28;20030;-64
2022/01/19 02:56:45;;;;;;;14.13;5.90;;;0.60;78.50;;;-1.40;85.71;97227.06;4943251;28;20039;-64
2022/01/19 02:59:17;;;;;;;14.68;4.85;;;0.60;78.60;;;-1.41;85.79;97222.00;4945850;28;20054;-64
2022/01/19 03:09:46;;;;;;;13.98;5.57;;;0.60;78.70;;;-1.45;86.32;97229.09;4945107;28;20043;-64
2022/01/19 03:12:12;;;;;;;12.63;5.38;;;0.60;78.60;;;-1.44;85.87;97232.50;4919454;28;20581;-64
2022/01/19 03:14:38;;;;;;;11.77;5.10;;;0.60;78.70;;;-1.45;85.66;97231.66;4929674;29;20047;-64
2022/01/19 03:17:05;;;;;;;11.48;5.25;;;0.60;78.50;;;-1.45;85.72;97229.09;4952187;28;20043;-64
2022/01/19 03:19:34;;;;;;;14.18;5.55;;;0.60;78.40;;;-1.47;85.76;97228.34;4928142;29;20143;-64
2022/01/19 03:22:00;;;;;;;10.18;4.60;;;0.60;78.40;;;-1.47;86.08;97228.34;4945431;28;20066;-64
2022/01/19 03:24:26;;;;;;;19.00;7.00;;;0.60;78.40;;;-1.49;85.87;97230.19;4928520;29;20062;-64
2022/01/19 03:26:51;;;;;;;19.48;8.13;;;0.60;78.70;;;-1.50;85.94;97236.25;4933298;29;20031;-64
2022/01/19 03:29:18;;;;;;;12.15;7.03;;;0.60;78.60;;;-1.49;86.06;97234.50;4935373;28;20406;-64
2022/01/19 03:31:43;;;;;;;15.60;6.18;;;0.60;78.60;;;-1.50;85.69;97244.00;4939166;28;20046;-64
2022/01/19 03:34:11;;;;;;;9.70;5.05;;;0.60;78.10;;;-1.53;85.52;97238.19;4948478;28;20039;-66
2022/01/19 03:36:37;;;;;;;15.45;5.53;;;0.60;78.00;;;-1.56;85.46;97234.03;4939959;28;20047;-64
2022/01/19 03:39:03;;;;;;;9.63;5.28;;;0.50;77.90;;;-1.58;85.32;97228.13;4932642;28;20035;-61
2022/01/19 03:41:29;;;;;;;14.80;5.70;;;0.50;77.70;;;-1.61;85.46;97226.53;4952716;28;20039;-61
2022/01/19 03:43:55;;;;;;;10.68;5.15;;;0.50;77.70;;;-1.65;85.13;97219.88;4950859;28;20035;-62
2022/01/19 03:46:22;;;;;;;11.95;5.13;;;0.40;77.50;;;-1.68;85.37;97225.22;4943311;28;20167;-61
2022/01/19 03:48:57;;;;;;;12.45;5.00;;;0.30;77.60;;;-1.73;85.33;97221.25;4909250;29;20035;-62
2022/01/19 03:51:23;;;;;;;16.25;5.25;;;0.30;77.70;;;-1.79;84.95;97216.44;4931308;28;20031;-61
2022/01/19 03:53:49;;;;;;;24.83;13.10;;;0.20;77.70;;;-1.81;85.38;97219.09;4922798;28;20034;-61
2022/01/19 03:56:15;;;;;;;23.27;11.38;;;0.30;78.70;;;-1.79;86.04;97216.44;4937641;28;20051;-61
2022/01/19 03:58:41;;;;;;;56.88;32.35;;;0.30;79.20;;;-1.81;86.03;97220.81;4924887;28;20055;-61
2022/01/19 04:01:08;;;;;;;41.03;23.45;;;0.20;78.60;;;-1.82;85.84;97216.59;4947884;28;20094;-62
2022/01/19 04:06:06;;;;;;;33.50;17.70;;;0.30;78.80;;;-1.85;86.04;97233.06;4956309;28;20110;-61
2022/01/19 04:08:32;;;;;;;17.75;8.90;;;0.30;78.70;;;-1.87;86.08;97240.06;4962982;28;20078;-62
2022/01/19 04:10:57;;;;;;;12.13;7.00;;;0.20;78.60;;;-1.89;86.05;97237.56;4932771;28;20134;-61
2022/01/19 04:13:31;;;;;;;12.70;6.25;;;0.20;78.30;;;-1.92;85.97;97242.91;4940962;28;20212;-61
2022/01/19 04:15:57;;;;;;;14.18;6.57;;;0.10;78.30;;;-1.95;85.78;97247.38;4939184;28;20083;-62
2022/01/19 04:18:22;;;;;;;13.20;6.50;;;0.10;78.30;;;-1.98;85.46;97238.09;4935002;28;20471;-61
2022/01/19 04:20:50;;;;;;;14.75;6.05;;;0.10;78.20;;;-2.00;85.71;97231.34;4929446;28;20051;-61
2022/01/19 04:23:17;;;;;;;16.15;6.68;;;0.10;78.30;;;-2.02;85.74;97225.44;4944908;28;20503;-61
2022/01/19 04:25:43;;;;;;;27.65;13.70;;;0.10;78.50;;;-2.02;86.44;97231.44;4952362;28;20081;-62
2022/01/19 04:28:09;;;;;;;16.10;8.40;;;0.10;79.40;;;-2.03;86.48;97228.94;4909438;29;20071;-61
2022/01/19 04:30:35;;;;;;;25.83;14.40;;;0.10;79.00;;;-2.06;86.30;97235.06;4948349;29;20084;-61
2022/01/19 04:33:07;;;;;;;22.50;13.25;;;0.00;79.00;;;-2.06;86.76;97229.09;4902622;29;20039;-66
2022/01/19 04:35:43;;;;;;;;;;;0.00;79.70;;;-2.07;88.19;97238.56;4947643;29;20068;-65
2022/01/19 05:02:48;;;;;;;14.38;8.05;;;0.30;78.60;;;-1.89;86.99;97222.09;4949971;28;20133;-61
2022/01/19 05:04:49;;;;;;;11.88;6.85;;;0.30;78.80;;;-1.85;86.79;97220.16;4931186;28;20050;-61
2022/01/19 05:15:01;;;;;;;16.02;7.88;;;0.50;78.70;;;-1.69;87.41;97207.25;4934528;29;20050;-61
2022/01/19 05:17:27;;;;;;;16.73;7.78;;;0.50;78.90;;;-1.67;87.64;97200.25;4949652;29;20341;-60
2022/01/19 05:19:52;;;;;;;13.38;7.90;;;0.60;78.70;;;-1.65;87.53;97193.25;4938428;29;20038;-61
2022/01/19 05:22:18;;;;;;;17.25;8.20;;;0.60;78.60;;;-1.63;87.39;97201.75;4950327;28;20189;-61
2022/01/19 05:24:45;;;;;;;13.35;7.70;;;0.60;78.50;;;-1.65;87.12;97203.59;4925749;29;20043;-61
2022/01/19 05:27:11;;;;;;;13.50;7.68;;;0.50;78.50;;;-1.66;87.22;97186.44;4922848;29;20039;-61
2022/01/19 05:29:37;;;;;;;14.35;8.20;;;0.50;78.60;;;-1.67;86.91;97169.31;4937596;29;20073;-61
2022/01/19 05:32:03;;;;;;;18.17;7.85;;;0.50;78.70;;;-1.72;87.07;97163.59;4899955;29;20038;-61
2022/01/19 05:34:29;;;;;;;16.55;7.68;;;0.40;78.90;;;-1.72;86.93;97166.16;4914515;29;20350;-61
2022/01/19 05:36:54;;;;;;;15.55;6.80;;;0.40;79.00;;;-1.76;87.45;97149.22;4944930;29;20494;-61
2022/01/19 05:39:20;;;;;;;15.57;6.85;;;0.30;79.40;;;-1.80;87.46;97138.25;4906378;29;20035;-61
2022/01/19 05:41:46;;;;;;;15.25;7.15;;;0.20;79.70;;;-1.82;87.99;97134.06;4941111;29;20050;-62
2022/01/19 05:44:12;;;;;;;13.45;6.90;;;0.20;80.20;;;-1.86;87.74;97129.09;4901228;29;20040;-62
2022/01/19 05:46:37;;;;;;;16.50;6.72;;;0.20;80.50;;;-1.89;88.33;97134.41;4941203;29;20091;-65
2022/01/19 05:49:03;;;;;;;17.55;6.88;;;0.20;80.90;;;-1.92;88.14;97124.28;4945324;28;20040;-64
2022/01/19 05:51:29;;;;;;;14.23;7.85;;;0.20;81.00;;;-1.95;88.88;97139.09;4938502;29;20378;-64
2022/01/19 05:53:55;;;;;;;15.45;7.82;;;0.10;81.20;;;-1.96;88.83;97140.84;4942345;29;20031;-64
2022/01/19 05:56:20;;;;;;;18.65;8.00;;;0.20;81.10;;;-1.95;88.49;97141.69;4899433;29;20047;-65
2022/01/19 05:58:46;;;;;;;13.30;7.00;;;0.20;81.00;;;-1.96;88.49;97142.59;4941463;29;20050;-62
2022/01/19 06:01:12;;;;;;;14.32;7.15;;;0.20;80.80;;;-1.97;88.92;97140.94;4939687;29;20043;-63
2022/01/19 06:03:38;;;;;;;13.85;7.50;;;0.20;80.70;;;-1.99;88.70;97155.66;4944171;29;20046;-64
2022/01/19 06:06:03;;;;;;;18.08;7.93;;;0.10;81.10;;;-1.99;89.00;97153.91;4931780;28;20041;-63
2022/01/19 06:08:42;;;;;;;14.18;7.20;;;0.10;81.10;;;-1.99;89.23;97153.09;4932701;29;20448;-66
2022/01/19 06:11:07;;;;;;;18.85;8.40;;;0.10;81.10;;;-1.98;89.38;97150.41;4947463;29;20090;-63
2022/01/19 06:13:34;;;;;;;13.75;7.68;;;0.10;81.00;;;-1.95;89.52;97146.84;4948140;29;20515;-62
2022/01/19 06:16:00;;;;;;;18.77;8.05;;;0.20;80.90;;;-1.91;89.17;97138.84;4946477;28;20040;-64
2022/01/19 06:18:25;;;;;;;15.80;8.23;;;0.30;80.60;;;-1.88;89.17;97150.72;4948175;29;20467;-64
2022/01/19 06:20:51;;;;;;;19.83;9.63;;;0.40;80.40;;;-1.86;89.50;97148.88;4933340;29;20031;-66
2022/01/19 06:23:17;;;;;;;24.05;9.18;;;0.30;80.20;;;-1.82;89.11;97141.78;4931259;29;20175;-63
2022/01/19 06:25:43;;;;;;;19.40;8.80;;;0.40;80.40;;;-1.82;89.51;97132.31;4944160;28;20455;-65
2022/01/19 06:28:08;;;;;;;17.80;8.00;;;0.40;80.30;;;-1.78;89.19;97126.09;4931209;28;20094;-65
2022/01/19 06:30:34;;;;;;;15.32;8.13;;;0.40;80.20;;;-1.74;89.49;97122.41;4957460;28;20035;-65
2022/01/19 06:33:00;;;;;;;18.35;8.93;;;0.40;80.40;;;-1.69;89.42;97122.97;4944604;28;20036;-65
2022/01/19 06:35:27;;;;;;;18.63;9.13;;;0.50;80.30;;;-1.66;89.50;97125.38;4929258;29;20047;-64
2022/01/19 06:37:53;;;;;;;16.92;9.10;;;0.50;80.00;;;-1.63;89.08;97130.34;4926673;29;20023;-66
2022/01/19 06:40:20;;;;;;;21.17;9.02;;;0.50;79.80;;;-1.64;89.14;97127.84;4931467;28;20171;-65
2022/01/19 06:42:46;;;;;;;14.65;8.90;;;0.50;80.10;;;-1.64;89.15;97131.25;4916626;29;20042;-65
2022/01/19 06:45:12;;;;;;;18.02;9.30;;;0.50;80.00;;;-1.64;88.81;97120.13;4932272;29;20031;-61
2022/01/19 06:47:38;;;;;;;17.58;9.77;;;0.50;79.80;;;-1.66;88.80;97124.53;4915518;29;20043;-63
2022/01/19 06:50:06;;;;;;;17.08;9.63;;;0.40;79.90;;;-1.65;88.77;97132.19;4948679;28;20046;-63
2022/01/19 06:52:32;;;;;;;15.90;9.18;;;0.50;80.20;;;-1.62;89.21;97120.84;4929402;28;20028;-63
2022/01/19 06:54:57;;;;;;;15.88;8.82;;;0.60;80.50;;;-1.62;89.11;97126.00;4945005;28;20526;-63
2022/01/19 06:57:23;;;;;;;19.25;10.55;;;0.50;79.60;;;-1.61;89.17;97122.50;4948429;28;20483;-63
2022/01/19 06:59:51;;;;;;;30.30;15.57;;;0.60;80.30;;;-1.56;89.34;97121.34;4931516;29;20090;-62
2022/01/19 07:02:18;;;;;;;31.60;15.90;;;0.70;79.80;;;-1.51;89.19;97117.66;4947351;28;20053;-62
2022/01/19 07:04:48;;;;;;;26.75;13.98;;;0.70;79.70;;;-1.47;89.15;97119.97;4931099;29;20202;-62
2022/01/19 07:07:18;;;;;;;39.92;23.27;;;0.80;79.40;;;-1.42;89.22;97107.63;4928042;29;20087;-62
2022/01/19 07:09:44;;;;;;;20.63;11.35;;;0.90;79.00;;;-1.38;88.69;97108.25;4941720;29;20170;-64
2022/01/19 07:12:10;;;;;;;20.60;9.50;;;0.80;78.70;;;-1.36;88.50;97107.28;4916416;28;20335;-64
2022/01/19 07:14:36;;;;;;;22.65;10.15;;;0.80;78.40;;;-1.33;88.78;97111.44;4946709;29;20360;-64
2022/01/19 07:17:02;;;;;;;18.23;10.70;;;0.90;78.50;;;-1.33;88.60;97112.25;4931708;29;20410;-64
2022/01/19 07:19:28;;;;;;;17.92;9.77;;;0.80;78.70;;;-1.36;88.54;97107.28;4941172;29;20111;-63
2022/01/19 07:21:54;;;;;;;18.02;11.07;;;0.70;78.90;;;-1.38;88.53;97103.94;4959310;28;20126;-64
2022/01/19 07:24:19;;;;;;;16.45;9.85;;;0.70;79.30;;;-1.37;88.53;97100.44;4926540;28;20035;-64
2022/01/19 07:26:45;;;;;;;22.15;11.07;;;0.80;79.30;;;-1.36;88.89;97096.09;4942695;28;20043;-64
2022/01/19 07:29:12;;;;;;;19.13;10.27;;;0.80;79.40;;;-1.36;88.97;97099.53;4950499;28;20113;-64
2022/01/19 07:31:38;;;;;;;19.17;11.35;;;0.80;79.60;;;-1.37;88.93;97099.59;4967085;28;20035;-64
2022/01/19 07:34:04;;;;;;;19.98;11.98;;;0.70;79.80;;;-1.36;89.04;97099.53;4933295;28;20062;-64
2022/01/19 07:36:29;;;;;;;19.67;11.90;;;0.80;80.00;;;-1.39;89.12;97093.69;4933941;28;20039;-64
2022/01/19 07:38:55;;;;;;;18.88;11.43;;;0.70;80.40;;;-1.37;89.60;97095.28;4931742;29;20107;-64
2022/01/19 07:41:21;;;;;;;24.85;12.95;;;0.80;80.50;;;-1.36;89.82;97093.53;4945970;29;20553;-64
2022/01/19 07:43:47;;;;;;;19.23;11.68;;;0.80;80.50;;;-1.37;89.52;97095.28;4933182;29;20559;-63
2022/01/19 07:46:13;;;;;;;24.55;12.50;;;0.70;80.80;;;-1.36;89.71;97091.78;4924801;28;20035;-64
2022/01/19 07:48:38;;;;;;;19.58;11.88;;;0.80;80.70;;;-1.32;89.77;97093.28;4950732;29;20077;-64
2022/01/19 07:51:04;;;;;;;26.15;13.00;;;0.90;80.50;;;-1.28;90.10;97099.91;4935570;29;20032;-62
2022/01/19 07:53:30;;;;;;;20.33;12.95;;;1.00;80.40;;;-1.23;90.31;97103.03;4944774;28;20031;-61
2022/01/19 07:55:55;;;;;;;23.30;13.20;;;1.10;80.50;;;-1.16;90.25;97098.31;4950435;29;20352;-62
2022/01/19 08:02:02;;;;;;;24.13;15.18;;;1.20;80.00;;;-1.07;90.11;97078.88;4939494;28;20126;-63
2022/01/19 08:04:28;;;;;;;25.80;16.42;;;1.10;80.10;;;-1.08;90.32;97075.47;4950452;28;20031;-62
2022/01/19 08:06:54;;;;;;;26.08;15.90;;;1.10;80.60;;;-1.07;90.51;97077.13;4932236;28;20412;-61
2022/01/19 08:09:23;;;;;;;28.63;16.88;;;1.10;80.80;;;-1.00;90.86;97082.75;4915727;29;20512;-63
2022/01/19 08:11:50;;;;;;;25.58;16.10;;;1.30;80.60;;;-0.97;90.52;97077.38;4943413;29;20040;-63
2022/01/19 08:14:16;;;;;;;29.90;17.42;;;1.20;80.20;;;-0.93;90.31;97076.25;4943668;28;20040;-63
2022/01/19 08:16:42;;;;;;;27.02;17.02;;;1.30;80.40;;;-0.88;90.65;97074.25;4950697;28;20143;-63
2022/01/19 08:19:07;;;;;;;26.02;16.27;;;1.40;80.10;;;-0.86;90.44;97077.56;4950798;29;20059;-63
2022/01/19 08:21:33;;;;;;;26.70;16.35;;;1.40;80.20;;;-0.83;90.62;97071.38;4950091;28;20121;-64
2022/01/19 08:23:59;;;;;;;26.33;16.58;;;1.40;80.10;;;-0.82;90.40;97066.13;4928977;28;20098;-64
2022/01/19 08:26:25;;;;;;;30.00;17.25;;;1.40;80.00;;;-0.76;90.76;97059.72;4949984;29;20043;-64
2022/01/19 08:28:50;;;;;;;29.77;18.15;;;1.50;80.00;;;-0.73;90.32;97062.94;4933543;29;20114;-63
2022/01/19 08:31:16;;;;;;;29.80;18.45;;;1.60;80.00;;;-0.69;90.65;97061.00;4950484;29;20055;-64
2022/01/19 08:33:42;;;;;;;28.77;17.60;;;1.60;79.90;;;-0.70;90.69;97054.19;4903022;29;20055;-64
2022/01/19 08:36:08;;;;;;;30.95;18.00;;;1.50;80.20;;;-0.65;90.59;97052.97;4918253;28;20499;-64
2022/01/19 08:38:34;;;;;;;28.70;18.17;;;1.70;80.10;;;-0.60;90.11;97046.69;4933114;29;20067;-63
2022/01/19 08:41:00;;;;;;;28.40;17.55;;;1.80;79.90;;;-0.53;90.50;97053.13;4934537;29;20028;-62
2022/01/19 08:43:25;;;;;;;29.45;17.73;;;1.90;79.20;;;-0.48;90.41;97053.66;4916756;29;20063;-65
2022/01/19 08:45:52;;;;;;;30.20;17.70;;;1.90;79.10;;;-0.44;90.60;97055.13;4918238;29;20039;-65
2022/01/19 08:48:18;;;;;;;27.55;17.40;;;2.00;79.30;;;-0.37;90.25;97052.06;4929547;28;20126;-62
2022/01/19 08:50:44;;;;;;;28.85;19.10;;;2.10;79.00;;;-0.29;90.38;97056.72;4933447;29;20412;-64
2022/01/19 08:53:09;;;;;;;42.17;26.33;;;2.20;78.80;;;-0.19;90.83;97044.88;4930903;28;20048;-64
2022/01/19 08:55:35;;;;;;;31.60;19.77;;;2.30;79.40;;;-0.12;90.66;97050.47;4947986;28;20059;-65
2022/01/19 08:58:01;;;;;;;26.73;17.80;;;2.30;78.00;;;-0.07;90.35;97057.00;4914506;28;20044;-65
2022/01/19 09:00:27;;;;;;;30.20;19.75;;;2.30;78.10;;;-0.03;89.79;97055.03;4933795;29;20502;-65
2022/01/19 09:02:52;;;;;;;31.13;19.30;;;2.40;78.00;;;0.04;90.14;97055.47;4924392;28;20027;-65
2022/01/19 09:05:18;;;;;;;28.48;18.10;;;2.40;77.80;;;0.05;89.08;97049.38;4951042;28;20187;-66
2022/01/19 09:07:44;;;;;;;26.48;18.25;;;2.40;77.20;;;0.08;89.51;97052.59;4929046;29;20058;-65
2022/01/19 09:10:10;;;;;;;29.38;18.75;;;2.40;77.40;;;0.12;89.64;97042.84;4933422;28;20040;-65
2022/01/19 09:12:36;;;;;;;28.52;19.58;;;2.40;77.20;;;0.14;88.56;97044.41;4918824;29;20044;-63
2022/01/19 09:15:06;;;;;;;29.30;18.83;;;2.50;76.80;;;0.20;89.04;97041.41;4916126;29;20122;-64
2022/01/19 09:17:32;;;;;;;31.17;20.38;;;2.60;77.00;;;0.23;88.50;97024.88;4928631;29;20047;-63
2022/01/19 09:19:58;;;;;;;27.52;18.63;;;2.60;77.00;;;0.23;88.49;97030.88;4949142;28;20518;-65
2022/01/19 09:22:23;;;;;;;30.77;19.88;;;2.40;76.50;;;0.19;88.17;97028.56;4930048;29;20039;-65
2022/01/19 09:24:49;;;;;;;28.05;19.38;;;2.40;77.30;;;0.22;88.19;97018.03;4911010;29;20059;-65
2022/01/19 09:27:18;;;;;;;29.58;19.75;;;2.50;77.10;;;0.26;88.41;97019.50;4940106;29;20118;-65
2022/01/19 09:29:45;;;;;;;30.33;19.27;;;2.60;76.90;;;0.27;87.83;97015.97;4942371;29;20511;-65
2022/01/19 09:32:14;;;;;;;31.60;19.92;;;2.50;76.70;;;0.33;87.94;97020.72;4898732;29;20065;-65
2022/01/19 09:34:43;;;;;;;28.83;19.33;;;2.60;76.70;;;0.33;88.35;97015.56;4922922;29;20031;-65
2022/01/19 09:37:08;;;;;;;29.60;19.33;;;2.60;77.00;;;0.38;88.03;97010.88;4900629;29;20515;-64
2022/01/19 09:39:34;;;;;;;30.88;19.35;;;2.80;76.70;;;0.48;88.29;97013.69;4919266;29;20082;-65
2022/01/19 09:42:00;;;;;;;25.90;18.35;;;3.00;76.10;;;0.57;88.17;97016.47;4917383;28;20119;-65
2022/01/19 09:44:28;;;;;;;25.55;18.13;;;3.10;75.10;;;0.60;87.75;97013.69;4912320;29;20143;-62
2022/01/19 09:46:53;;;;;;;23.48;16.88;;;3.20;74.70;;;0.69;87.24;97012.22;4944895;28;20031;-65
2022/01/19 09:49:20;;;;;;;24.38;17.35;;;3.30;73.90;;;0.82;87.18;96996.66;4938560;28;20046;-65
2022/01/19 09:51:47;;;;;;;24.17;17.80;;;3.60;73.50;;;0.91;87.28;96996.03;4940127;28;20213;-65
2022/01/19 09:54:15;;;;;;;22.65;16.02;;;3.60;72.10;;;0.99;86.02;96996.31;4946829;28;20097;-65
2022/01/19 09:56:41;;;;;;;21.88;15.65;;;3.60;72.00;;;1.09;86.21;96989.53;4932355;29;20306;-65
2022/01/19 09:59:08;;;;;;;24.35;17.15;;;4.00;71.20;;;1.18;86.02;96988.06;4934623;28;20031;-65
2022/01/19 10:01:34;;;;;;;24.08;16.45;;;3.80;70.60;;;1.19;85.79;96980.19;4966406;28;20548;-64
2022/01/19 10:04:15;;;;;;;22.65;16.30;;;4.10;70.90;;;1.30;84.95;96976.00;4916514;29;20134;-65
2022/01/19 10:06:41;;;;;;;23.80;17.27;;;4.60;69.20;;;1.56;85.69;96967.16;4932157;29;20036;-65
2022/01/19 10:09:07;;;;;;;22.77;16.98;;;6.50;64.40;;;1.91;86.07;96958.53;4950513;28;20070;-64
2022/01/19 10:16:59;;;;;;;19.52;16.33;;;10.50;50.90;;;3.44;82.51;96940.50;4928217;29;20050;-66
2022/01/19 10:19:29;;;;;;;20.92;16.63;;;11.10;47.20;;;3.91;83.85;96933.19;4932480;29;20103;-65
2022/01/19 10:22:13;;;;;;;17.87;15.97;;;13.80;42.50;;;4.58;77.98;96927.50;4936237;29;20039;-65
2022/01/19 10:24:46;;;;;;;16.90;15.05;;;15.50;37.60;;;5.12;82.36;96915.84;4947451;29;20043;-65
2022/01/19 10:27:40;;;;;;;19.70;15.35;;;16.80;35.00;;;5.81;73.39;96913.09;4938942;28;20066;-64
2022/01/19 10:30:05;;;;;;;16.58;14.35;;;17.60;33.20;;;6.29;79.74;96907.00;4946732;28;20039;-65
2022/01/19 10:32:56;;;;;;;18.30;14.50;;;18.60;30.90;;;6.87;70.88;96893.69;4964428;28;20028;-64
2022/01/19 10:35:31;;;;;;;15.67;14.00;;;19.10;30.30;;;7.47;72.73;96883.47;4947770;28;20074;-65
2022/01/19 10:38:09;;;;;;;16.45;13.85;;;20.60;28.30;;;8.02;68.93;96883.25;4945012;29;20283;-65
2022/01/19 10:40:37;;;;;;;18.33;13.18;;;20.90;27.50;;;8.47;74.12;96878.66;4918838;29;20036;-65
2022/01/19 10:43:41;;;;;;;14.48;12.98;;;21.10;26.50;;;8.97;63.99;96859.47;4932593;29;20404;-64
2022/01/19 10:46:16;;;;;;;15.57;12.98;;;21.50;26.80;;;9.40;64.48;96858.41;4929406;28;20368;-66
2022/01/19 10:48:42;;;;;;;14.23;12.73;;;22.10;26.20;;;9.88;69.60;96850.69;4945069;28;20090;-66
2022/01/19 10:51:12;;;;;;;15.52;13.00;;;23.00;24.30;;;10.32;65.49;96857.22;4948708;29;20276;-66
2022/01/19 10:53:40;;;;;;;13.07;11.73;;;23.00;24.80;;;10.68;66.43;96848.88;4949637;28;20114;-66
2022/01/19 10:56:06;;;;;;;13.65;11.98;;;22.20;24.70;;;10.91;65.48;96856.84;4920094;28;20071;-65
2022/01/19 10:58:33;;;;;;;13.35;12.02;;;22.10;25.40;;;11.15;63.05;96847.97;4943827;29;20050;-65
2022/01/19 11:00:59;;;;;;;13.85;12.35;;;21.80;25.60;;;11.38;62.15;96843.53;4919294;29;20156;-65
2022/01/19 11:03:27;;;;;;;15.85;12.25;;;21.20;26.30;;;11.45;58.76;96848.94;4942519;29;20535;-64
2022/01/19 11:05:58;;;;;;;14.82;12.88;;;20.50;27.00;;;11.42;58.10;96842.19;4920834;29;20043;-64
2022/01/19 11:08:25;;;;;;;13.70;12.40;;;20.10;27.60;;;11.31;57.41;96839.94;4936797;29;20467;-68
2022/01/19 11:10:53;;;;;;;13.23;11.88;;;19.30;28.30;;;11.10;57.00;96834.53;4920052;29;20098;-66
2022/01/19 11:14:03;;;;;;;13.10;11.77;;;18.40;29.40;;;10.91;52.91;96828.69;4936358;29;20061;-64
2022/01/19 11:16:16;;;;;;;12.48;11.23;;;18.00;30.80;;;10.80;55.77;96818.53;4935283;29;20040;-65
2022/01/19 11:18:44;;;;;;;12.85;11.55;;;18.10;30.30;;;10.76;54.99;96821.69;4950618;28;20467;-67
2022/01/19 11:21:11;;;;;;;13.13;11.70;;;18.00;30.50;;;10.72;54.23;96829.13;4936845;29;20498;-66
2022/01/19 11:23:56;;;;;;;13.00;11.63;;;17.90;30.20;;;10.56;51.41;96827.38;4932220;29;20032;-65
2022/01/19 11:26:27;;;;;;;13.43;11.35;;;17.70;31.00;;;10.62;52.61;96815.34;4934154;28;20463;-64
2022/01/19 11:28:53;;;;;;;13.05;11.65;;;18.30;30.30;;;10.70;54.75;96796.91;4916907;29;20029;-64
2022/01/19 11:31:24;;;;;;;12.13;10.75;;;18.00;30.00;;;10.80;51.59;96794.84;4948131;28;20074;-65
2022/01/19 11:33:56;;;;;;;12.20;10.88;;;18.50;29.60;;;10.93;53.18;96792.50;4948329;29;20035;-65
2022/01/19 11:36:31;;;;;;;12.02;10.82;;;18.80;29.50;;;11.12;52.98;96785.13;4924209;28;20043;-65
2022/01/19 11:39:23;;;;;;;13.13;11.82;;;19.60;28.80;;;11.37;48.39;96794.50;4947206;29;20055;-66
2022/01/19 11:41:56;;;;;;;12.40;10.90;;;20.10;27.70;;;11.70;51.11;96783.66;4919414;29;20657;-66
2022/01/19 11:44:33;;;;;;;12.05;10.80;;;21.00;26.50;;;12.04;48.77;96770.84;4932745;29;20043;-67
2022/01/19 11:47:24;;;;;;;11.57;10.38;;;22.00;25.60;;;12.48;47.44;96760.25;4944399;28;20483;-67